Time;durP1;ratioP1;P1;durP2;ratioP2;P2;SDS_P1;SDS_P2;PMS_P1;PMS_P2;Temp;Humidity;BMP_temperature;BMP_pressure;BME280_temperature;BME280_humidity;BME280_pressure;Samples;Min_cycle;Max_cycle;Signal;HPM_P1;HPM_P2
2022/09/09 00:02:00;;;;;;;20.60;2.45;;;15.60;99.90;;;;;;4959550;28;20046;-78
2022/09/09 00:04:34;;;;;;;16.88;2.53;;;15.60;99.90;;;;;;4957873;28;20031;-79
2022/09/09 00:07:18;;;;;;;12.18;2.17;;;15.70;99.90;;;;;;4956976;28;20081;-79
2022/09/09 00:09:55;;;;;;;9.45;1.75;;;15.80;99.90;;;;;;4958013;29;20046;-79
2022/09/09 00:12:42;;;;;;;11.10;1.70;;;15.70;99.90;;;;;;4957209;28;20030;-79
2022/09/09 00:15:14;;;;;;;8.88;1.20;;;15.60;99.90;;;;;;4958760;28;20054;-78
2022/09/09 00:18:23;;;;;;;5.15;1.20;;;15.60;99.90;;;;;;4958946;28;20039;-78
2022/09/09 00:20:55;;;;;;;12.95;1.98;;;15.50;99.90;;;;;;4954596;28;20039;-79
2022/09/09 00:23:39;;;;;;;4.45;1.25;;;15.40;99.90;;;;;;4955957;28;20110;-79
2022/09/09 00:26:18;;;;;;;4.40;0.93;;;15.40;99.90;;;;;;4955974;28;20034;-78
2022/09/09 00:28:47;;;;;;;6.68;1.02;;;15.30;99.90;;;;;;4941407;28;20031;-78
2022/09/09 00:31:24;;;;;;;5.72;1.23;;;15.30;99.90;;;;;;4935264;29;20494;-79
2022/09/09 00:33:52;;;;;;;9.73;1.38;;;15.20;99.90;;;;;;4936519;29;20413;-78
2022/09/09 00:36:28;;;;;;;11.80;1.75;;;15.20;99.90;;;;;;4936621;29;20417;-79
2022/09/09 00:39:00;;;;;;;12.77;1.55;;;15.20;99.90;;;;;;4936743;29;20572;-79
2022/09/09 00:41:54;;;;;;;11.90;1.65;;;15.20;99.90;;;;;;4936427;29;20489;-79
2022/09/09 00:44:35;;;;;;;12.88;1.23;;;15.20;99.90;;;;;;4936505;29;20024;-79
2022/09/09 00:47:25;;;;;;;11.35;1.35;;;15.20;99.90;;;;;;4936488;29;20024;-79
2022/09/09 00:50:08;;;;;;;9.98;1.17;;;15.20;99.90;;;;;;4936053;29;20032;-80
2022/09/09 00:53:05;;;;;;;8.57;1.20;;;15.20;99.90;;;;;;4936446;29;20020;-80
2022/09/09 00:55:40;;;;;;;9.85;1.50;;;15.20;99.90;;;;;;4936447;29;20031;-80
2022/09/09 02:57:22;;;;;;;4.90;1.55;;;13.60;99.90;;;;;;5832640;23;20058;-79
2022/09/09 02:59:49;;;;;;;5.75;1.80;;;13.70;99.90;;;;;;4953298;28;20023;-79
2022/09/09 03:02:15;;;;;;;6.25;1.95;;;13.80;99.90;;;;;;4953520;29;20434;-80
2022/09/09 03:04:44;;;;;;;6.65;2.58;;;13.80;99.90;;;;;;4953596;28;20082;-79
2022/09/09 03:07:11;;;;;;;9.23;2.00;;;13.80;99.90;;;;;;4953384;28;20062;-79
2022/09/09 03:09:36;;;;;;;8.95;1.77;;;13.80;99.90;;;;;;4953136;28;20034;-79
2022/09/09 03:12:06;;;;;;;4.38;1.83;;;13.90;99.90;;;;;;4952748;28;20023;-80
2022/09/09 03:14:32;;;;;;;3.97;1.67;;;13.90;99.90;;;;;;4952916;28;20034;-79
2022/09/09 03:17:00;;;;;;;2.08;1.23;;;13.80;99.90;;;;;;4951487;28;20039;-79
2022/09/09 03:19:27;;;;;;;9.15;1.40;;;13.70;99.90;;;;;;4953373;28;20155;-79
2022/09/09 03:21:54;;;;;;;6.32;2.05;;;13.80;99.90;;;;;;4953433;28;20020;-80
2022/09/09 03:24:20;;;;;;;7.50;2.17;;;13.80;99.90;;;;;;4953152;28;20027;-80
2022/09/09 03:26:46;;;;;;;11.70;2.58;;;13.90;99.90;;;;;;4953336;28;20155;-79
2022/09/09 03:29:12;;;;;;;10.95;1.98;;;14.10;99.90;;;;;;4968152;28;20523;-79
2022/09/09 03:31:39;;;;;;;6.03;1.73;;;14.10;99.90;;;;;;4972319;28;20027;-79
2022/09/09 03:34:05;;;;;;;7.97;2.28;;;14.20;99.90;;;;;;4972286;28;20027;-79
2022/09/09 03:36:31;;;;;;;4.88;1.98;;;14.20;99.90;;;;;;4970976;28;20081;-79
2022/09/09 03:38:57;;;;;;;7.25;1.90;;;14.30;99.90;;;;;;4970883;28;20526;-78
2022/09/09 03:41:23;;;;;;;3.42;1.65;;;14.30;99.90;;;;;;4972164;28;20539;-78
2022/09/09 03:43:51;;;;;;;4.15;1.95;;;14.30;99.90;;;;;;4972154;28;20027;-78
2022/09/09 03:46:17;;;;;;;4.75;1.92;;;14.40;99.90;;;;;;4971888;28;20038;-79
2022/09/09 03:48:43;;;;;;;2.80;1.75;;;14.40;99.90;;;;;;4972182;28;20031;-78
2022/09/09 03:51:10;;;;;;;3.63;1.90;;;14.40;99.90;;;;;;4971942;28;20027;-78
2022/09/09 03:53:37;;;;;;;3.30;1.73;;;14.30;99.90;;;;;;4972190;28;20027;-78
2022/09/09 03:56:06;;;;;;;3.60;1.80;;;14.30;99.90;;;;;;4974562;28;20046;-79
2022/09/09 04:58:26;;;;;;;;;;;14.20;99.90;;;;;;5293035;23;20046;-79
2022/09/09 05:00:52;;;;;;;4.93;2.40;;;14.30;99.90;;;;;;4973336;28;19973;-79
2022/09/09 05:03:18;;;;;;;4.40;2.17;;;14.30;99.90;;;;;;4974875;28;20479;-80
2022/09/09 05:05:44;;;;;;;8.80;2.40;;;14.40;99.90;;;;;;4974394;28;20019;-80
2022/09/09 05:08:10;;;;;;;3.50;2.08;;;14.40;99.90;;;;;;4974353;28;20081;-80
2022/09/09 05:10:41;;;;;;;4.47;2.00;;;14.40;99.90;;;;;;4974158;28;20037;-80
2022/09/09 05:13:07;;;;;;;8.27;2.42;;;14.40;99.90;;;;;;4974081;28;20014;-80
2022/09/09 05:15:33;;;;;;;3.75;2.38;;;14.40;99.90;;;;;;4973006;28;20089;-80
2022/09/09 05:18:00;;;;;;;5.97;2.55;;;14.40;99.90;;;;;;4974114;28;20070;-79
2022/09/09 05:20:26;;;;;;;7.47;2.53;;;14.40;99.90;;;;;;4974449;28;20030;-79
2022/09/09 05:22:56;;;;;;;6.93;2.42;;;14.40;99.90;;;;;;4974605;28;20035;-79
2022/09/09 05:25:25;;;;;;;6.38;3.00;;;14.40;99.90;;;;;;4973054;28;20439;-79
2022/09/09 05:27:53;;;;;;;8.80;3.13;;;14.50;99.90;;;;;;4972973;28;20111;-79
2022/09/09 05:30:19;;;;;;;6.03;2.28;;;14.50;99.90;;;;;;4974381;28;20029;-79
2022/09/09 05:32:45;;;;;;;3.83;1.90;;;14.50;99.90;;;;;;4974260;28;20102;-79
2022/09/09 05:35:10;;;;;;;4.05;2.38;;;14.50;99.90;;;;;;4973053;28;20111;-80
2022/09/09 05:37:36;;;;;;;5.65;2.17;;;14.50;99.90;;;;;;4973865;28;20045;-80
2022/09/09 05:40:02;;;;;;;3.80;2.40;;;14.50;99.90;;;;;;4973945;28;20029;-79
2022/09/09 05:42:32;;;;;;;7.80;2.58;;;14.50;99.90;;;;;;4973491;28;20041;-80
2022/09/09 05:44:58;;;;;;;7.68;2.58;;;14.60;99.90;;;;;;4973653;28;20022;-79
2022/09/09 05:47:24;;;;;;;7.22;3.13;;;14.60;99.90;;;;;;4973858;28;20106;-80
2022/09/09 05:49:50;;;;;;;7.05;3.05;;;14.60;99.90;;;;;;4973810;28;20026;-80
2022/09/09 05:52:15;;;;;;;7.18;3.53;;;14.70;99.90;;;;;;4973686;28;20023;-80
2022/09/09 05:54:42;;;;;;;7.93;3.17;;;14.70;99.90;;;;;;4973471;28;20019;-80
2022/09/09 06:59:15;;;;;;;5.30;2.67;;;15.50;99.90;;;;;;4949944;28;20046;-78
2022/09/09 07:01:44;;;;;;;6.40;2.88;;;15.60;99.90;;;;;;4953669;28;20039;-78
2022/09/09 07:04:11;;;;;;;6.68;2.97;;;15.60;99.90;;;;;;4946675;28;20019;-78
2022/09/09 07:06:40;;;;;;;5.10;3.05;;;15.60;99.90;;;;;;4942066;28;20042;-78
2022/09/09 07:09:08;;;;;;;6.15;2.45;;;15.70;99.90;;;;;;4960293;28;20432;-78
2022/09/09 07:11:41;;;;;;;6.03;2.40;;;15.70;99.90;;;;;;4970617;28;20073;-78
2022/09/09 07:14:07;;;;;;;8.10;3.13;;;15.70;99.90;;;;;;4969649;28;20027;-78
2022/09/09 07:16:36;;;;;;;5.75;2.97;;;15.70;99.90;;;;;;4969586;28;20031;-78
2022/09/09 07:19:03;;;;;;;4.07;2.85;;;15.80;99.90;;;;;;4957899;28;20031;-78
2022/09/09 07:21:30;;;;;;;4.35;2.33;;;15.80;99.90;;;;;;4958557;28;20534;-78
2022/09/09 07:23:57;;;;;;;7.15;2.67;;;15.80;99.90;;;;;;4964398;28;20034;-78
2022/09/09 07:26:26;;;;;;;6.53;2.95;;;15.80;99.90;;;;;;4971278;28;20018;-78
2022/09/09 07:28:51;;;;;;;6.05;2.83;;;15.80;99.90;;;;;;4957726;28;20040;-78
2022/09/09 07:31:20;;;;;;;5.88;2.90;;;15.80;99.90;;;;;;4972992;28;20031;-78
2022/09/09 07:33:47;;;;;;;8.82;3.25;;;15.80;99.90;;;;;;4973790;28;20022;-78
2022/09/09 07:36:25;;;;;;;6.32;2.75;;;15.70;99.90;;;;;;4972652;28;20499;-79
2022/09/09 07:38:57;;;;;;;8.75;3.38;;;15.70;99.90;;;;;;4974650;28;20050;-76
2022/09/09 07:41:31;;;;;;;4.68;2.65;;;15.80;99.90;;;;;;4974730;28;20106;-76
2022/09/09 07:43:58;;;;;;;5.45;2.60;;;15.80;99.90;;;;;;4974356;28;20058;-76
2022/09/09 07:46:26;;;;;;;10.10;3.00;;;15.80;99.90;;;;;;4974955;28;20018;-76
2022/09/09 07:48:54;;;;;;;7.18;2.92;;;15.80;99.90;;;;;;4974393;28;20026;-77
2022/09/09 07:51:24;;;;;;;3.70;2.22;;;15.80;99.90;;;;;;4974312;28;20026;-77
2022/09/09 07:53:57;;;;;;;5.30;2.83;;;15.90;99.90;;;;;;4973799;28;20042;-77
2022/09/09 07:56:24;;;;;;;4.88;2.60;;;16.00;99.90;;;;;;4968197;28;20118;-77
2022/09/09 12:57:15;;;;;;;1.45;0.60;;;19.60;99.90;;;;;;6169323;22;20020;31
2022/09/09 12:59:45;;;;;;;4.95;0.70;;;19.10;99.90;;;;;;4960358;28;20051;-79
2022/09/09 13:02:44;;;;;;;4.25;0.93;;;18.80;99.90;;;;;;4971709;28;20062;-79
2022/09/09 13:05:23;;;;;;;3.50;0.98;;;18.70;99.90;;;;;;4967090;28;20030;-79
2022/09/09 13:07:49;;;;;;;3.95;1.38;;;19.00;99.90;;;;;;4965364;28;20128;-79
2022/09/09 13:10:26;;;;;;;2.80;0.80;;;19.40;99.90;;;;;;4954641;28;20100;-79
2022/09/09 13:12:57;;;;;;;1.63;0.60;;;19.70;99.90;;;;;;4941408;28;20114;-80
2022/09/09 13:15:27;;;;;;;2.70;0.57;;;19.90;99.90;;;;;;4953838;28;20030;-80
2022/09/09 13:17:55;;;;;;;1.45;0.30;;;20.30;99.90;;;;;;4953507;28;20073;-79
2022/09/09 13:20:24;;;;;;;6.85;1.00;;;20.60;99.90;;;;;;4953978;28;20015;-81
2022/09/09 13:22:52;;;;;;;2.63;0.70;;;20.50;99.90;;;;;;4953978;28;20027;-80
2022/09/09 13:25:27;;;;;;;2.85;0.77;;;20.60;99.90;;;;;;4954092;28;20029;-79
2022/09/09 13:27:55;;;;;;;3.55;0.75;;;20.90;99.90;;;;;;4953069;28;20028;-80
2022/09/09 13:30:33;;;;;;;2.88;0.55;;;21.10;99.90;;;;;;4951146;29;20019;-79
2022/09/09 13:33:10;;;;;;;1.98;0.70;;;21.20;91.40;;;;;;4947992;29;20106;-80
2022/09/09 13:35:49;;;;;;;3.40;0.65;;;21.30;95.30;;;;;;4927301;29;20027;-80
2022/09/09 13:38:15;;;;;;;2.65;0.60;;;21.20;97.60;;;;;;4947859;28;20384;-79
2022/09/09 13:41:01;;;;;;;1.77;0.70;;;21.20;94.10;;;;;;4952713;28;20034;-80
2022/09/09 13:43:28;;;;;;;1.52;0.55;;;21.50;94.90;;;;;;4945972;28;20043;-79
2022/09/09 13:46:02;;;;;;;1.35;0.38;;;21.90;90.40;;;;;;4950262;28;20051;-79
2022/09/09 13:48:29;;;;;;;3.95;0.70;;;23.10;74.90;;;;;;4953585;28;20011;-79
2022/09/09 13:51:01;;;;;;;1.65;0.60;;;24.30;66.90;;;;;;4951466;28;20028;-78
2022/09/09 13:53:27;;;;;;;1.60;0.55;;;24.70;65.70;;;;;;4951729;29;20034;-79
2022/09/09 13:55:53;;;;;;;0.60;0.35;;;23.90;70.80;;;;;;4936329;29;20040;-80
2022/09/09 13:58:19;;;;;;;2.55;0.50;;;23.00;71.50;;;;;;4931434;28;20044;-80
2022/09/09 14:00:46;;;;;;;1.83;0.73;;;22.20;75.80;;;;;;4934737;29;20030;-79
2022/09/09 14:03:11;;;;;;;0.65;0.20;;;21.50;89.40;;;;;;4943269;28;20079;-79
2022/09/09 14:05:38;;;;;;;0.80;0.65;;;20.80;93.80;;;;;;4936807;29;20417;-79
2022/09/09 14:08:11;;;;;;;1.95;1.00;;;20.20;99.90;;;;;;4937341;28;20038;-79
2022/09/09 14:10:36;;;;;;;1.50;1.02;;;19.50;99.90;;;;;;4944853;28;20487;-79
2022/09/09 14:13:03;;;;;;;3.58;1.10;;;19.10;99.90;;;;;;4951548;28;20028;-80
2022/09/09 14:15:28;;;;;;;4.55;1.25;;;18.80;99.90;;;;;;4952977;28;20372;-80
2022/09/09 14:17:54;;;;;;;1.23;0.70;;;18.60;99.90;;;;;;4952755;28;20031;-80
2022/09/09 14:20:21;;;;;;;2.17;0.52;;;18.60;99.90;;;;;;4953248;28;20065;-80
2022/09/09 14:22:47;;;;;;;2.75;0.85;;;18.70;99.90;;;;;;4952888;29;20027;-80
2022/09/09 14:25:15;;;;;;;1.98;1.00;;;19.10;99.90;;;;;;4952626;28;20595;-80
2022/09/09 14:27:42;;;;;;;2.72;0.73;;;19.50;99.90;;;;;;4974538;23;20062;-80
2022/09/09 14:30:09;;;;;;;0.40;0.40;;;20.30;99.90;;;;;;4971139;28;20022;-80
2022/09/09 14:32:35;;;;;;;2.00;0.28;;;22.10;99.90;;;;;;4971741;28;20026;-80
2022/09/09 14:35:00;;;;;;;1.90;0.47;;;24.70;79.30;;;;;;4970314;28;20035;-79
2022/09/09 14:37:27;;;;;;;1.02;0.50;;;25.70;70.70;;;;;;4971639;28;20031;-78
2022/09/09 14:39:53;;;;;;;1.65;0.40;;;26.00;63.10;;;;;;4971110;28;20435;-78
2022/09/09 14:42:19;;;;;;;1.38;0.40;;;25.40;64.20;;;;;;4971533;28;20044;-78
2022/09/09 14:44:45;;;;;;;2.30;0.57;;;25.40;62.20;;;;;;4972008;28;20095;-78
2022/09/09 14:47:11;;;;;;;1.88;0.50;;;25.10;67.40;;;;;;4971120;28;20029;-77
2022/09/09 14:49:37;;;;;;;2.05;0.30;;;25.90;60.20;;;;;;4969758;28;20019;-83
2022/09/09 14:52:04;;;;;;;1.00;0.38;;;27.70;56.20;;;;;;4969981;28;20027;-79
2022/09/09 14:54:31;;;;;;;0.55;0.22;;;27.50;53.90;;;;;;4971223;28;20047;-79
2022/09/09 14:56:57;;;;;;;0.40;0.20;;;27.30;55.20;;;;;;4953188;28;20031;-79
2022/09/09 14:59:23;;;;;;;1.77;0.20;;;27.20;54.40;;;;;;4958574;28;20019;-80
2022/09/09 15:01:49;;;;;;;2.65;0.30;;;28.20;53.50;;;;;;4950928;28;20055;-81
2022/09/09 15:04:16;;;;;;;1.75;0.20;;;27.40;52.60;;;;;;4954232;28;20061;-82
2022/09/09 15:06:44;;;;;;;1.35;0.40;;;26.80;53.40;;;;;;4951295;28;20035;-81
2022/09/09 15:09:10;;;;;;;0.80;0.50;;;25.30;56.70;;;;;;4956705;28;20043;-81
2022/09/09 15:11:37;;;;;;;1.42;0.30;;;26.20;57.90;;;;;;4955883;28;20125;-82
2022/09/09 15:14:04;;;;;;;0.30;0.20;;;28.10;52.50;;;;;;4951309;28;20496;-82
2022/09/09 15:16:31;;;;;;;0.80;0.38;;;29.70;46.70;;;;;;4949018;28;20038;-82
2022/09/09 15:18:58;;;;;;;0.28;0.20;;;30.70;47.90;;;;;;4955080;28;20035;-80
2022/09/09 15:21:26;;;;;;;0.25;0.20;;;31.70;42.20;;;;;;4944190;28;20032;-82
2022/09/09 15:23:52;;;;;;;0.20;0.20;;;31.30;41.60;;;;;;4951776;28;20054;-83
2022/09/09 15:26:18;;;;;;;0.75;0.32;;;31.60;41.30;;;;;;4949138;28;20027;-82
2022/09/09 15:28:47;;;;;;;0.77;0.30;;;31.90;40.40;;;;;;4946698;23;20048;-82
2022/09/09 15:31:18;;;;;;;0.45;0.30;;;31.60;41.10;;;;;;4911783;29;20441;-86
2022/09/09 15:33:52;;;;;;;2.25;0.30;;;30.10;42.90;;;;;;4917147;29;20085;-87
2022/09/09 15:36:23;;;;;;;0.98;0.40;;;28.90;45.60;;;;;;4908009;29;20028;-83
2022/09/09 15:38:50;;;;;;;2.28;0.30;;;27.00;50.20;;;;;;4907302;29;20032;-82
2022/09/09 15:41:17;;;;;;;0.40;0.20;;;25.40;52.90;;;;;;4906360;29;20126;-82
2022/09/09 15:43:57;;;;;;;1.08;0.17;;;24.40;58.80;;;;;;4906501;29;20511;-83
2022/09/09 15:46:37;;;;;;;0.38;0.30;;;23.40;65.80;;;;;;4906352;29;20042;-85
2022/09/09 15:49:38;;;;;;;0.60;0.40;;;22.50;66.10;;;;;;4907206;29;20024;-84
2022/09/09 15:52:04;;;;;;;0.30;0.30;;;22.00;73.70;;;;;;4910845;29;20123;-84
2022/09/09 15:54:36;;;;;;;1.60;0.40;;;21.60;79.90;;;;;;4910859;29;20560;-85
2022/09/09 15:57:03;;;;;;;0.20;0.20;;;21.30;79.10;;;;;;4910944;29;20036;-85
2022/09/09 15:59:31;;;;;;;0.60;0.30;;;21.10;82.60;;;;;;4907487;29;20036;-84
2022/09/09 16:01:59;;;;;;;0.52;0.30;;;21.20;90.50;;;;;;4892676;29;20024;-85
2022/09/09 16:04:25;;;;;;;0.90;0.50;;;21.10;92.00;;;;;;4887873;29;20036;-82
2022/09/09 16:06:53;;;;;;;1.23;0.50;;;21.00;90.90;;;;;;4895506;29;20028;-84
2022/09/09 16:09:19;;;;;;;1.77;0.50;;;20.80;93.00;;;;;;4905737;29;20051;-84
2022/09/09 16:11:46;;;;;;;1.13;0.60;;;20.50;98.30;;;;;;4910010;29;20115;-85
2022/09/09 16:14:14;;;;;;;0.40;0.30;;;20.50;98.90;;;;;;4910467;29;20059;-85
2022/09/09 16:16:40;;;;;;;2.88;0.38;;;20.50;99.90;;;;;;4909674;29;20079;-83
2022/09/09 16:19:09;;;;;;;0.95;0.45;;;20.40;98.90;;;;;;4926710;29;20083;-85
2022/09/09 16:21:41;;;;;;;1.05;0.50;;;20.40;99.90;;;;;;4898852;29;20381;-85
2022/09/09 16:24:10;;;;;;;0.82;0.60;;;20.30;99.10;;;;;;4909421;29;20461;-83
2022/09/09 16:26:37;;;;;;;1.20;0.50;;;20.40;99.90;;;;;;4916330;29;20028;-86
2022/09/09 16:29:04;;;;;;;1.35;0.65;;;20.30;99.90;;;;;;4970037;23;20062;-83
2022/09/09 16:31:34;;;;;;;0.95;0.52;;;20.30;98.70;;;;;;4971875;28;20030;-84
2022/09/09 16:34:00;;;;;;;2.42;0.70;;;20.10;99.90;;;;;;4974072;28;20089;-85
2022/09/09 16:36:30;;;;;;;0.52;0.47;;;20.30;99.90;;;;;;4973347;28;20419;-83
2022/09/09 16:38:57;;;;;;;1.05;0.38;;;20.30;99.90;;;;;;4972327;28;20475;-83
2022/09/09 16:41:24;;;;;;;1.75;0.60;;;20.50;99.90;;;;;;4974092;28;20102;-84
2022/09/09 16:44:02;;;;;;;1.35;0.80;;;20.60;99.90;;;;;;4972800;28;20022;-86
2022/09/09 16:46:29;;;;;;;1.30;0.65;;;20.50;99.90;;;;;;4973227;28;20081;-85
2022/09/09 16:49:00;;;;;;;0.40;0.40;;;20.30;99.90;;;;;;4973609;28;20557;-86
2022/09/09 16:51:32;;;;;;;3.15;0.60;;;20.20;99.90;;;;;;4973626;28;20078;-86
2022/09/09 16:53:58;;;;;;;;;;;19.90;99.90;;;;;;4964965;28;20042;-87
2022/09/09 16:56:26;;;;;;;0.68;0.50;;;19.70;99.90;;;;;;4973571;28;19906;-89
2022/09/09 16:58:58;;;;;;;2.60;0.60;;;19.50;99.90;;;;;;4968560;28;20035;-87
2022/09/09 17:01:24;;;;;;;1.70;0.70;;;19.40;99.90;;;;;;4966836;28;20020;-87
2022/09/09 17:03:57;;;;;;;3.58;0.70;;;19.20;99.90;;;;;;4958255;28;20031;-84
2022/09/09 17:06:23;;;;;;;1.58;0.52;;;19.10;99.90;;;;;;4959189;28;20081;-87
2022/09/09 17:08:55;;;;;;;1.48;0.60;;;19.00;99.90;;;;;;4956709;28;20476;-84
2022/09/09 17:11:21;;;;;;;0.90;0.65;;;19.10;99.90;;;;;;4951795;28;20022;-85
2022/09/09 17:13:47;;;;;;;1.90;0.80;;;19.10;99.90;;;;;;4973396;28;20027;-88
2022/09/09 17:16:16;;;;;;;1.67;0.50;;;18.90;99.90;;;;;;4964391;28;20034;-84
2022/09/09 17:18:43;;;;;;;2.97;0.95;;;18.90;99.90;;;;;;4972578;28;20035;-86
2022/09/09 17:21:12;;;;;;;1.50;0.60;;;19.00;99.90;;;;;;4957393;28;20023;-86
2022/09/09 17:23:38;;;;;;;1.83;0.60;;;19.10;99.90;;;;;;4958255;28;20066;-84
2022/09/09 17:26:12;;;;;;;4.80;1.08;;;19.30;99.90;;;;;;4955098;28;20055;-85
2022/09/09 17:28:39;;;;;;;2.13;0.70;;;20.10;99.90;;;;;;4982627;23;20039;-78
2022/09/09 17:31:10;;;;;;;2.00;0.57;;;20.40;99.90;;;;;;4974996;28;20038;-78
2022/09/09 17:33:40;;;;;;;5.95;0.75;;;20.70;99.90;;;;;;4974367;28;20043;-78
2022/09/09 17:36:24;;;;;;;1.85;0.75;;;20.30;99.90;;;;;;4972128;28;20114;-80
2022/09/09 17:38:51;;;;;;;1.88;0.60;;;19.70;99.90;;;;;;4960184;28;20039;-84
2022/09/09 17:41:23;;;;;;;3.13;0.50;;;19.00;99.90;;;;;;4954050;28;20027;-82
2022/09/09 17:43:49;;;;;;;2.97;0.90;;;18.50;99.90;;;;;;4947416;28;20399;-82
2022/09/09 17:46:19;;;;;;;1.23;0.75;;;18.30;99.90;;;;;;4954060;28;20452;-85
2022/09/09 17:48:45;;;;;;;1.55;0.60;;;18.00;99.90;;;;;;4951593;28;20020;-86
2022/09/09 17:51:24;;;;;;;1.92;0.63;;;17.90;99.90;;;;;;4953994;28;20027;-83
2022/09/09 17:53:50;;;;;;;2.85;0.90;;;17.60;99.90;;;;;;4953173;28;20061;-80
2022/09/09 17:56:22;;;;;;;4.10;0.70;;;17.50;99.90;;;;;;4953170;28;20031;-82
2022/09/09 17:58:52;;;;;;;3.05;1.25;;;17.50;99.90;;;;;;4954407;28;20027;-80
2022/09/09 18:01:27;;;;;;;3.67;1.20;;;17.40;99.90;;;;;;4954129;28;20499;-80
2022/09/09 18:03:56;;;;;;;2.42;0.68;;;17.30;99.90;;;;;;4947846;28;20035;-81
2022/09/09 18:06:26;;;;;;;1.58;0.95;;;17.20;99.90;;;;;;4953613;28;20114;-77
2022/09/09 18:09:00;;;;;;;1.33;0.73;;;17.20;99.90;;;;;;4952478;28;20030;-79
2022/09/09 18:11:34;;;;;;;4.53;1.08;;;17.00;99.90;;;;;;4950752;28;20046;-79
2022/09/09 18:14:02;;;;;;;1.90;0.95;;;17.00;99.90;;;;;;4950958;28;20027;-79
2022/09/09 18:16:32;;;;;;;5.50;1.05;;;16.90;99.90;;;;;;4952237;28;20023;-79
2022/09/09 18:18:58;;;;;;;2.55;1.05;;;16.80;99.90;;;;;;4952420;28;20031;-81
2022/09/09 18:21:26;;;;;;;4.93;1.20;;;16.70;99.90;;;;;;4949832;28;20037;-82
2022/09/09 18:23:52;;;;;;;3.63;1.27;;;16.70;99.90;;;;;;4952399;28;20066;-81
2022/09/09 18:26:21;;;;;;;5.65;1.20;;;16.60;99.90;;;;;;4952140;28;20019;-79
2022/09/09 18:28:49;;;;;;;2.88;1.17;;;16.60;99.90;;;;;;4990154;23;20652;-83
2022/09/09 18:31:17;;;;;;;2.03;1.20;;;16.50;99.90;;;;;;5003824;28;20033;-84
2022/09/09 18:33:44;;;;;;;2.15;1.10;;;16.40;99.90;;;;;;5009723;28;20022;-82
2022/09/09 18:36:13;;;;;;;3.42;0.90;;;16.30;99.90;;;;;;4993787;28;20040;-80
2022/09/09 18:38:40;;;;;;;1.40;0.82;;;16.20;99.90;;;;;;4984050;28;20042;-81
2022/09/09 18:41:20;;;;;;;2.95;1.02;;;16.10;99.90;;;;;;5001867;28;20677;-80
2022/09/09 18:43:47;;;;;;;2.78;0.80;;;15.90;99.90;;;;;;5006719;28;20029;-80
2022/09/09 18:46:15;;;;;;;6.85;1.10;;;15.90;99.90;;;;;;5004248;28;20034;-81
2022/09/09 18:48:41;;;;;;;3.30;1.27;;;15.70;99.90;;;;;;5005933;28;20024;-81
2022/09/09 18:51:09;;;;;;;2.72;1.08;;;15.60;99.90;;;;;;5005647;28;20081;-80
2022/09/09 18:53:36;;;;;;;1.60;1.20;;;15.50;99.90;;;;;;5007033;28;20538;-80
2022/09/09 18:56:11;;;;;;;4.40;1.20;;;15.30;99.90;;;;;;5006306;28;20052;-79
2022/09/09 18:58:37;;;;;;;5.20;1.30;;;15.20;99.90;;;;;;5000256;28;20132;-80
2022/09/09 19:01:05;;;;;;;5.28;1.30;;;15.20;99.90;;;;;;5003809;28;20789;-81
2022/09/09 19:03:33;;;;;;;2.20;1.30;;;15.10;99.90;;;;;;5006490;28;20128;-80
2022/09/09 19:06:04;;;;;;;2.58;1.40;;;15.10;99.90;;;;;;5005730;28;20405;-82
2022/09/09 19:08:33;;;;;;;4.90;1.42;;;14.90;99.90;;;;;;5007319;28;20069;-80
2022/09/09 19:11:03;;;;;;;2.83;1.30;;;14.80;99.90;;;;;;4999771;28;20038;-79
2022/09/09 19:13:32;;;;;;;3.78;1.35;;;14.80;99.90;;;;;;5002177;28;20128;-81
2022/09/09 19:16:06;;;;;;;2.72;0.90;;;14.80;99.90;;;;;;5005936;28;20065;-81
2022/09/09 19:18:32;;;;;;;2.30;1.25;;;14.80;99.90;;;;;;5006826;28;20041;-81
2022/09/09 19:21:23;;;;;;;1.70;1.35;;;14.70;99.90;;;;;;5006112;28;20109;-83
2022/09/09 19:23:53;;;;;;;4.03;1.27;;;14.70;99.90;;;;;;4992458;28;20113;-81
2022/09/09 19:26:20;;;;;;;4.43;1.42;;;14.60;99.90;;;;;;5008938;28;20437;-81
2022/09/09 19:28:48;;;;;;;3.05;1.50;;;14.50;99.90;;;;;;5012513;22;20042;-82
2022/09/09 19:31:19;;;;;;;2.42;1.27;;;14.40;99.90;;;;;;4990954;28;20085;-83
2022/09/09 19:33:46;;;;;;;1.95;1.40;;;14.40;99.90;;;;;;4990492;28;20450;-80
2022/09/09 19:36:15;;;;;;;5.57;1.70;;;14.40;99.90;;;;;;4990563;28;20028;-80
2022/09/09 19:38:41;;;;;;;5.57;1.60;;;14.30;99.90;;;;;;4986864;28;20036;-81
2022/09/09 19:41:10;;;;;;;4.38;1.80;;;14.20;99.90;;;;;;4994082;28;20022;-79
2022/09/09 19:43:36;;;;;;;2.92;1.48;;;14.20;99.90;;;;;;4993929;28;20015;-78
2022/09/09 19:46:05;;;;;;;2.92;1.55;;;14.20;99.90;;;;;;4992648;28;20023;-77
2022/09/09 19:48:37;;;;;;;1.75;1.60;;;14.20;99.90;;;;;;4991745;28;20475;-80
2022/09/09 19:51:05;;;;;;;2.30;1.67;;;14.20;99.90;;;;;;4994695;28;20030;-80
2022/09/09 19:53:34;;;;;;;4.90;2.05;;;14.40;99.90;;;;;;4994474;28;20034;-80
2022/09/09 19:56:02;;;;;;;5.20;1.77;;;14.50;99.90;;;;;;4992543;28;20053;-80
2022/09/09 19:58:29;;;;;;;5.03;1.83;;;14.50;99.90;;;;;;4989802;28;20026;-79
2022/09/09 20:00:55;;;;;;;5.88;2.03;;;14.60;99.90;;;;;;4983382;28;20436;-79
2022/09/09 20:03:20;;;;;;;3.63;1.90;;;14.60;99.90;;;;;;4990108;28;20029;-80
2022/09/09 20:05:48;;;;;;;8.30;2.53;;;14.70;99.90;;;;;;4990428;28;20026;-80
2022/09/09 20:08:13;;;;;;;4.22;2.30;;;14.70;99.90;;;;;;4978967;28;20033;-80
2022/09/09 20:10:39;;;;;;;3.58;2.45;;;14.70;99.90;;;;;;4969116;28;20027;-80
2022/09/09 20:13:05;;;;;;;4.03;1.80;;;14.70;99.90;;;;;;4982497;28;20035;-81
2022/09/09 20:15:30;;;;;;;6.18;2.45;;;14.70;99.90;;;;;;4989513;28;20027;-80
2022/09/09 20:17:56;;;;;;;7.43;1.90;;;14.70;99.90;;;;;;4989774;28;20042;-80
2022/09/09 20:20:22;;;;;;;6.35;1.75;;;14.80;99.90;;;;;;4990868;28;20482;-81
2022/09/09 20:22:48;;;;;;;3.20;2.22;;;14.80;99.90;;;;;;4989698;28;20033;-79
2022/09/09 20:25:14;;;;;;;4.13;2.33;;;14.80;99.90;;;;;;4990044;28;20409;-78
2022/09/09 21:58:18;;;;;;;5.18;2.40;;;14.40;99.90;;;;;;5740385;22;20070;-87
2022/09/09 22:00:46;;;;;;;3.70;2.33;;;14.50;99.90;;;;;;4968268;28;20058;-85
2022/09/09 22:03:16;;;;;;;8.40;2.95;;;14.50;99.90;;;;;;4967734;28;20029;-86
2022/09/09 22:05:43;;;;;;;4.13;2.63;;;14.60;99.90;;;;;;4967817;28;20023;-85
2022/09/09 22:08:11;;;;;;;5.43;2.47;;;14.60;99.90;;;;;;4966213;28;20026;-89
2022/09/09 22:10:44;;;;;;;4.72;2.70;;;14.60;99.90;;;;;;4965832;28;20089;-88
2022/09/09 22:13:10;;;;;;;6.00;2.58;;;14.60;99.90;;;;;;4953146;28;20030;-87
2022/09/09 22:15:40;;;;;;;7.47;3.20;;;14.70;99.90;;;;;;4950465;28;20027;-82
2022/09/09 22:18:06;;;;;;;5.80;2.75;;;14.80;99.90;;;;;;4959681;28;20043;-83
2022/09/09 22:20:33;;;;;;;5.25;2.60;;;14.90;99.90;;;;;;4968959;28;20031;-82
2022/09/09 22:23:00;;;;;;;4.05;2.72;;;14.90;99.90;;;;;;4970768;28;20035;-83
2022/09/09 22:25:26;;;;;;;4.05;2.08;;;15.00;99.90;;;;;;4971037;28;20030;-82
2022/09/09 22:27:51;;;;;;;3.92;2.25;;;15.10;99.90;;;;;;4971035;28;20011;-82
2022/09/09 22:30:18;;;;;;;4.72;2.30;;;15.10;99.90;;;;;;4972190;28;20026;-81
2022/09/09 22:32:44;;;;;;;4.18;2.70;;;15.10;99.90;;;;;;4971926;28;20026;-80
2022/09/09 22:35:11;;;;;;;6.60;2.22;;;15.10;99.90;;;;;;4971898;28;20030;-80
2022/09/09 22:37:38;;;;;;;4.90;2.15;;;15.10;99.90;;;;;;4972323;28;20097;-83
2022/09/09 22:40:04;;;;;;;4.88;2.17;;;15.10;99.90;;;;;;4972254;28;20102;-82
2022/09/09 22:42:30;;;;;;;4.68;2.45;;;15.00;99.90;;;;;;4971949;28;20026;-82
2022/09/09 22:44:56;;;;;;;3.97;1.88;;;15.10;99.90;;;;;;4970390;28;20383;-82
2022/09/09 22:47:21;;;;;;;5.10;2.45;;;15.10;99.90;;;;;;4971398;28;20019;-82
2022/09/09 22:49:47;;;;;;;4.47;2.38;;;15.10;99.90;;;;;;4971372;28;20019;-82
2022/09/09 22:52:13;;;;;;;7.90;2.50;;;15.20;99.90;;;;;;4971552;28;20027;-82
2022/09/09 22:54:41;;;;;;;9.82;2.58;;;15.30;99.90;;;;;;4971670;28;20029;-82
2022/09/09 22:57:08;;;;;;;4.20;2.50;;;15.30;99.90;;;;;;4971599;28;20027;-83
2022/09/09 22:59:35;;;;;;;5.35;2.30;;;15.30;99.90;;;;;;4995392;22;20061;-79
2022/09/09 23:02:01;;;;;;;9.05;2.70;;;15.40;99.90;;;;;;4991177;28;20026;-80
2022/09/09 23:04:27;;;;;;;4.95;2.38;;;15.40;99.90;;;;;;4990485;28;20047;-79
2022/09/09 23:06:53;;;;;;;6.07;2.17;;;15.50;99.90;;;;;;4990502;28;20023;-80
2022/09/09 23:09:18;;;;;;;5.93;2.28;;;15.50;99.90;;;;;;4991152;28;20033;-80
2022/09/09 23:11:46;;;;;;;3.72;1.85;;;15.60;99.90;;;;;;4990766;28;20467;-79
2022/09/09 23:14:12;;;;;;;6.43;2.65;;;15.60;99.90;;;;;;4990504;28;20026;-80
2022/09/09 23:16:41;;;;;;;3.42;2.03;;;15.70;99.90;;;;;;4990906;28;20015;-80
2022/09/09 23:19:14;;;;;;;4.15;2.25;;;15.70;99.90;;;;;;4990913;28;20022;-80
2022/09/09 23:21:41;;;;;;;3.10;2.05;;;15.70;99.90;;;;;;4990688;28;20030;-79
2022/09/09 23:24:10;;;;;;;5.75;1.90;;;15.70;99.90;;;;;;4989224;28;20058;-80
2022/09/09 23:26:37;;;;;;;3.13;1.92;;;15.80;99.90;;;;;;4991107;28;20019;-81
2022/09/09 23:29:03;;;;;;;4.60;2.00;;;15.80;99.90;;;;;;4990263;28;20106;-80